Buntingford, United Kingdom
Current Conditions -  °F | °C
As of 11:50 AM on Tuesday 21 Oct 2014 (Local Time) from EGSS Reporting Station
Broken Clouds Broken Clouds  
Wind Chill: 54°   Ceiling: 4600
Heat Index: 54°   Visibility: 6mi
Dew Point: 41°   Wind: 20mph
Humidity: 62%   Direction: 280°W
Pressure: 29.62"   Gusts: 37mph
Location:  51.95°N, 0.02°W
Report Text: EGSS 211050Z 28017G32KT 9999 SCT033 BKN046 12/05 Q1003
Loading
Personal Weather Stations






























Interactive Weather Map New forecast layout! Learn more

10-Day Weather Forecast

Advertisements
Track Severe Weather on mobile